createdAt,value
2019-04-10T00:00:16.824Z,25.70
2019-04-10T00:01:16.048Z,26.50
2019-04-10T00:02:16.039Z,25.60
2019-04-10T00:03:25.729Z,26.30
2019-04-10T00:04:17.012Z,25.40
2019-04-10T00:05:16.000Z,27.00
2019-04-10T00:06:17.903Z,26.50
2019-04-10T00:07:18.407Z,26.10
2019-04-10T00:08:15.988Z,25.00
2019-04-10T00:09:16.904Z,25.70
2019-04-10T00:10:16.055Z,25.80
2019-04-10T00:11:16.582Z,26.40
2019-04-10T00:12:15.954Z,25.20
2019-04-10T00:13:15.913Z,26.30
2019-04-10T00:14:16.421Z,26.60
2019-04-10T00:15:17.454Z,25.80
2019-04-10T00:16:16.013Z,25.80
2019-04-10T00:17:16.554Z,26.10
2019-04-10T00:18:16.003Z,26.00
2019-04-10T00:19:15.844Z,26.50
2019-04-10T00:20:16.277Z,25.20
2019-04-10T00:21:15.823Z,24.80
2019-04-10T00:22:15.931Z,26.50
2019-04-10T00:23:15.797Z,25.60
2019-04-10T00:24:15.821Z,25.70
2019-04-10T00:25:16.772Z,25.00
2019-04-10T00:26:15.762Z,25.70
2019-04-10T00:27:16.601Z,25.10
2019-04-10T00:28:15.741Z,24.80
2019-04-10T00:29:16.132Z,25.70
2019-04-10T00:30:16.637Z,25.30
2019-04-10T00:31:15.820Z,24.40
2019-04-10T00:32:16.122Z,25.30
2019-04-10T00:33:16.590Z,24.80
2019-04-10T00:34:15.717Z,24.70
2019-04-10T00:35:15.680Z,25.40
2019-04-10T00:36:16.185Z,24.70
2019-04-10T00:37:23.840Z,25.10
2019-04-10T00:38:17.626Z,25.70
2019-04-10T00:39:15.621Z,25.40
2019-04-10T00:40:15.623Z,24.80
2019-04-10T00:41:16.335Z,25.00
2019-04-10T00:42:15.591Z,25.00
2019-04-10T00:43:15.570Z,25.40
2019-04-10T00:44:15.574Z,25.70
2019-04-10T00:45:15.567Z,24.00
2019-04-10T00:46:15.769Z,25.20
2019-04-10T00:47:15.526Z,24.70
2019-04-10T00:48:15.577Z,25.10
2019-04-10T00:49:15.618Z,25.00
2019-04-10T00:50:15.517Z,25.50
2019-04-10T00:51:15.479Z,25.60
2019-04-10T00:52:16.333Z,25.30
2019-04-10T00:53:15.456Z,25.70
2019-04-10T00:54:16.098Z,25.50
2019-04-10T00:55:15.433Z,25.40
2019-04-10T00:56:16.549Z,26.30
2019-04-10T00:57:15.412Z,25.70
2019-04-10T00:58:16.224Z,25.30
2019-04-10T00:59:15.789Z,25.40
2019-04-10T01:00:15.377Z,26.50
2019-04-10T01:01:15.991Z,25.30
2019-04-10T01:02:16.241Z,25.70
2019-04-10T01:03:15.638Z,26.00
2019-04-10T01:04:15.335Z,25.50
2019-04-10T01:05:15.326Z,26.20
2019-04-10T01:06:15.839Z,26.10
2019-04-10T01:07:15.298Z,26.80
2019-04-10T01:08:16.120Z,26.20
2019-04-10T01:09:15.414Z,25.10
2019-04-10T01:10:15.263Z,25.80
2019-04-10T01:11:15.296Z,25.60
2019-04-10T01:12:16.049Z,25.70
2019-04-10T01:13:15.230Z,25.30
2019-04-10T01:14:15.866Z,26.30
2019-04-10T01:15:15.275Z,26.30
2019-04-10T01:16:16.267Z,26.40
2019-04-10T01:17:15.849Z,26.20
2019-04-10T01:18:15.172Z,25.80
2019-04-10T01:19:15.559Z,25.60
2019-04-10T01:20:15.582Z,25.70
2019-04-10T01:21:15.137Z,26.10
2019-04-10T01:22:15.126Z,24.90
2019-04-10T01:23:16.036Z,25.20
2019-04-10T01:24:15.105Z,24.80
2019-04-10T01:25:15.108Z,24.00
2019-04-10T01:26:15.081Z,24.80
2019-04-10T01:27:15.976Z,25.00
2019-04-10T01:28:15.063Z,25.00
2019-04-10T01:29:15.508Z,25.60
2019-04-10T01:30:15.904Z,25.20
2019-04-10T01:31:15.254Z,25.60
2019-04-10T01:32:15.431Z,24.70
2019-04-10T01:33:15.002Z,24.50
2019-04-10T01:34:14.994Z,24.90
2019-04-10T01:35:16.093Z,24.70
2019-04-10T01:36:15.149Z,23.90
2019-04-10T01:37:14.956Z,25.40
2019-04-10T01:38:15.510Z,25.20
2019-04-10T01:39:15.884Z,24.70
2019-04-10T01:40:15.036Z,24.60
2019-04-10T01:41:15.294Z,25.30
2019-04-10T01:42:14.901Z,24.60
2019-04-10T01:43:18.514Z,26.10
2019-04-10T01:44:15.877Z,25.90
2019-04-10T01:45:15.397Z,25.90
2019-04-10T01:46:15.909Z,26.20
2019-04-10T01:47:15.157Z,26.00
2019-04-10T01:48:15.407Z,25.00
2019-04-10T01:49:15.669Z,25.60
2019-04-10T01:50:14.810Z,25.70
2019-04-10T01:51:15.167Z,23.90
2019-04-10T01:52:15.102Z,24.70
2019-04-10T01:53:14.774Z,24.90
2019-04-10T01:54:15.152Z,25.50
2019-04-10T01:55:22.887Z,26.10
2019-04-10T01:56:27.045Z,24.80
2019-04-10T01:57:16.654Z,25.80
2019-04-10T01:58:14.876Z,25.30
2019-04-10T01:59:14.709Z,24.70
2019-04-10T02:00:15.249Z,25.00
2019-04-10T02:01:14.684Z,24.90
2019-04-10T02:02:14.874Z,25.60
2019-04-10T02:03:14.663Z,25.70
2019-04-10T02:04:14.652Z,25.10
2019-04-10T02:05:14.639Z,26.20
2019-04-10T02:06:14.626Z,25.40
2019-04-10T02:07:14.617Z,25.00
2019-04-10T02:08:16.082Z,24.70
2019-04-10T02:09:15.050Z,25.10
2019-04-10T02:10:14.580Z,24.90
2019-04-10T02:11:15.430Z,25.60
2019-04-10T02:12:14.625Z,26.00
2019-04-10T02:13:14.929Z,25.80
2019-04-10T02:14:14.565Z,25.20
2019-04-10T02:15:15.891Z,26.30
2019-04-10T02:16:14.624Z,25.70
2019-04-10T02:17:14.743Z,25.30
2019-04-10T02:18:14.491Z,26.40
2019-04-10T02:19:16.317Z,26.80
2019-04-10T02:20:14.645Z,26.10
2019-04-10T02:21:14.455Z,26.30
2019-04-10T02:22:14.443Z,26.80
2019-04-10T02:23:19.151Z,26.20
2019-04-10T02:24:14.638Z,26.10
2019-04-10T02:25:14.425Z,26.90
2019-04-10T02:26:14.401Z,26.70
2019-04-10T02:27:14.388Z,26.80
2019-04-10T02:28:15.084Z,26.10
2019-04-10T02:29:15.531Z,26.70
2019-04-10T02:30:16.807Z,26.40
2019-04-10T02:31:14.752Z,26.60
2019-04-10T02:32:14.630Z,26.20
2019-04-10T02:33:15.798Z,26.70
2019-04-10T02:34:14.956Z,26.00
2019-04-10T02:35:17.200Z,26.60
2019-04-10T02:36:15.313Z,26.20
2019-04-10T02:37:15.283Z,26.50
2019-04-10T02:38:33.757Z,26.60
2019-04-10T02:39:25.640Z,26.50
2019-04-10T02:40:15.238Z,26.40
2019-04-10T02:41:14.281Z,26.10
2019-04-10T02:42:14.404Z,25.50
2019-04-10T02:43:15.953Z,26.50
2019-04-10T02:44:14.194Z,27.00
2019-04-10T02:45:14.898Z,26.00
2019-04-10T02:46:15.564Z,27.30
2019-04-10T02:47:14.696Z,26.00
2019-04-10T02:48:15.024Z,26.40
2019-04-10T02:49:14.431Z,26.90
2019-04-10T02:50:14.362Z,27.10
2019-04-10T02:51:15.141Z,27.10
2019-04-10T02:52:14.769Z,27.30
2019-04-10T02:53:15.307Z,26.60
2019-04-10T02:54:15.424Z,25.80
2019-04-10T02:55:14.452Z,25.80
2019-04-10T02:56:15.734Z,27.00
2019-04-10T02:57:14.054Z,27.10
2019-04-10T02:58:14.291Z,26.60
2019-04-10T02:59:15.494Z,27.90
2019-04-10T03:00:14.226Z,26.30
2019-04-10T03:01:15.585Z,26.50
2019-04-10T03:02:14.137Z,27.80
2019-04-10T03:03:14.040Z,28.00
2019-04-10T03:04:13.965Z,28.00
2019-04-10T03:05:15.853Z,26.20
2019-04-10T03:06:15.503Z,27.30
2019-04-10T03:07:15.667Z,27.00
2019-04-10T03:08:15.845Z,28.00
2019-04-10T03:09:30.380Z,26.60
2019-04-10T03:10:24.608Z,27.30
2019-04-10T03:11:16.918Z,27.10
2019-04-10T03:12:14.580Z,27.70
2019-04-10T03:13:14.331Z,27.30
2019-04-10T03:14:14.801Z,27.60
2019-04-10T03:15:15.046Z,27.60
2019-04-10T03:16:14.185Z,27.80
2019-04-10T03:17:13.817Z,27.20
2019-04-10T03:18:14.764Z,26.80
2019-04-10T03:19:13.794Z,26.50
2019-04-10T03:20:14.157Z,27.30
2019-04-10T03:21:13.772Z,26.70
2019-04-10T03:22:13.790Z,27.40
2019-04-10T03:23:13.749Z,27.40
2019-04-10T03:24:13.930Z,27.80
2019-04-10T03:25:14.833Z,27.00
2019-04-10T03:26:13.716Z,28.50
2019-04-10T03:27:14.256Z,28.10
2019-04-10T03:28:14.587Z,28.10
2019-04-10T03:29:13.779Z,28.50
2019-04-10T03:30:15.314Z,28.50
2019-04-10T03:31:15.709Z,27.40
2019-04-10T03:32:14.680Z,28.90
2019-04-10T03:33:19.006Z,28.30
2019-04-10T03:34:16.821Z,28.50
2019-04-10T03:35:14.564Z,29.00
2019-04-10T03:36:13.687Z,28.20
2019-04-10T03:37:13.594Z,29.00
2019-04-10T03:38:14.666Z,28.40
2019-04-10T03:39:13.567Z,28.40
2019-04-10T03:40:13.575Z,28.80
2019-04-10T03:41:13.547Z,29.10
2019-04-10T03:42:13.536Z,28.80
2019-04-10T03:43:13.976Z,29.50
2019-04-10T03:44:14.510Z,29.20
2019-04-10T03:45:13.621Z,28.80
2019-04-10T03:46:13.488Z,29.50
2019-04-10T03:47:13.480Z,29.90
2019-04-10T03:48:13.858Z,29.30
2019-04-10T03:49:13.746Z,28.90
2019-04-10T03:50:14.250Z,28.60
2019-04-10T03:51:14.378Z,28.80
2019-04-10T03:52:13.500Z,29.30
2019-04-10T03:53:14.005Z,29.20
2019-04-10T03:54:13.395Z,28.80
2019-04-10T03:55:13.608Z,28.80
2019-04-10T03:56:13.814Z,29.90
2019-04-10T03:57:14.269Z,29.20
2019-04-10T03:58:13.541Z,28.30
2019-04-10T03:59:13.844Z,29.70
2019-04-10T04:00:14.141Z,30.20
2019-04-10T04:01:14.402Z,29.10
2019-04-10T04:02:13.682Z,28.80
2019-04-10T04:03:13.292Z,28.40
2019-04-10T04:04:13.415Z,29.00
2019-04-10T04:05:13.273Z,29.70
2019-04-10T04:06:13.375Z,30.10
2019-04-10T04:07:13.451Z,29.80
2019-04-10T04:08:13.236Z,30.30
2019-04-10T04:09:14.700Z,30.40
2019-04-10T04:10:13.213Z,30.10
2019-04-10T04:11:13.470Z,31.10
2019-04-10T04:12:13.192Z,29.80
2019-04-10T04:13:13.224Z,29.70
2019-04-10T04:14:13.170Z,30.60
2019-04-10T04:15:13.551Z,30.00
2019-04-10T04:16:13.148Z,30.60
2019-04-10T04:17:13.649Z,30.80
2019-04-10T04:18:13.124Z,29.90
2019-04-10T04:19:13.557Z,30.70
2019-04-10T04:20:13.114Z,29.20
2019-04-10T04:21:13.094Z,31.60
2019-04-10T04:22:13.106Z,30.20
2019-04-10T04:23:13.790Z,31.40
2019-04-10T04:24:13.057Z,30.70
2019-04-10T04:25:13.047Z,31.60
2019-04-10T04:26:13.035Z,31.70
2019-04-10T04:27:13.258Z,31.40
2019-04-10T04:28:13.025Z,31.70
2019-04-10T04:29:13.001Z,30.80
2019-04-10T04:30:12.991Z,32.00
2019-04-10T04:31:13.005Z,31.90
2019-04-10T04:32:13.432Z,32.10
2019-04-10T04:33:13.086Z,31.50
2019-04-10T04:34:12.947Z,31.80
2019-04-10T04:35:13.219Z,31.90
2019-04-10T04:36:12.924Z,31.90
2019-04-10T04:37:12.912Z,33.50
2019-04-10T04:38:13.451Z,32.50
2019-04-10T04:39:21.681Z,32.50
2019-04-10T04:40:13.879Z,32.40
2019-04-10T04:41:13.292Z,31.20
2019-04-10T04:42:12.886Z,32.30
2019-04-10T04:43:12.848Z,31.80
2019-04-10T04:44:12.868Z,30.60
2019-04-10T04:45:12.840Z,31.00
2019-04-10T04:46:12.809Z,31.70
2019-04-10T04:47:13.367Z,32.50
2019-04-10T04:48:12.785Z,30.60
2019-04-10T04:49:13.678Z,32.00
2019-04-10T04:50:12.789Z,30.70
2019-04-10T04:51:12.753Z,30.70
2019-04-10T04:52:13.279Z,31.90
2019-04-10T04:53:12.732Z,31.60
2019-04-10T04:54:12.973Z,30.60
2019-04-10T04:55:12.723Z,30.30
2019-04-10T04:56:12.699Z,30.20
2019-04-10T04:57:12.828Z,29.90
2019-04-10T04:58:13.749Z,29.10
2019-04-10T04:59:12.663Z,30.00
2019-04-10T05:00:13.193Z,29.90
2019-04-10T05:01:12.753Z,29.70
2019-04-10T05:02:12.629Z,30.10
2019-04-10T05:03:12.618Z,30.90
2019-04-10T05:04:13.121Z,30.40
2019-04-10T05:05:12.613Z,30.00
2019-04-10T05:06:12.612Z,30.50
2019-04-10T05:07:13.520Z,29.40
2019-04-10T05:08:13.181Z,29.70
2019-04-10T05:09:20.970Z,29.80
2019-04-10T05:10:13.567Z,29.90
2019-04-10T05:11:12.529Z,29.10
2019-04-10T05:12:13.391Z,29.60
2019-04-10T05:13:13.411Z,29.80
2019-04-10T05:14:13.231Z,28.80
2019-04-10T05:15:12.960Z,28.90
2019-04-10T05:16:12.507Z,28.80
2019-04-10T05:17:15.132Z,28.80
2019-04-10T05:18:12.520Z,28.80
2019-04-10T05:19:12.440Z,29.70
2019-04-10T05:20:12.428Z,29.90
2019-04-10T05:21:12.715Z,29.20
2019-04-10T05:22:12.438Z,31.60
2019-04-10T05:23:12.395Z,30.40
2019-04-10T05:24:12.383Z,30.50
2019-04-10T05:25:13.257Z,30.10
2019-04-10T05:26:12.361Z,29.80
2019-04-10T05:27:12.348Z,28.80
2019-04-10T05:28:13.293Z,27.90
2019-04-10T05:29:13.166Z,28.70
2019-04-10T05:30:12.881Z,28.10
2019-04-10T05:31:12.305Z,28.50
2019-04-10T05:32:12.293Z,28.50
2019-04-10T05:33:12.308Z,28.70
2019-04-10T05:34:12.269Z,28.90
2019-04-10T05:35:12.260Z,29.10
2019-04-10T05:36:13.255Z,28.50
2019-04-10T05:37:12.241Z,28.60
2019-04-10T05:38:12.328Z,29.10
2019-04-10T05:39:12.658Z,28.40
2019-04-10T05:40:12.206Z,28.60
2019-04-10T05:41:13.270Z,30.50
2019-04-10T05:42:12.753Z,29.30
2019-04-10T05:43:12.179Z,28.90
2019-04-10T05:44:12.191Z,27.20
2019-04-10T05:45:12.677Z,28.90
2019-04-10T05:46:12.401Z,28.50
2019-04-10T05:47:12.125Z,27.50
2019-04-10T05:48:12.114Z,27.60
2019-04-10T05:49:12.771Z,28.20
2019-04-10T05:50:13.025Z,27.10
2019-04-10T05:51:12.588Z,27.70
2019-04-10T05:52:12.679Z,26.90
2019-04-10T05:53:12.060Z,28.30
2019-04-10T05:54:12.818Z,27.60
2019-04-10T05:55:12.050Z,28.20
2019-04-10T05:56:12.040Z,28.50
2019-04-10T05:57:12.447Z,27.70
2019-04-10T05:58:11.999Z,27.30
2019-04-10T05:59:13.206Z,28.30
2019-04-10T06:00:12.408Z,26.90
2019-04-10T06:01:11.964Z,27.10
2019-04-10T06:02:11.954Z,26.40
2019-04-10T06:03:12.350Z,27.50
2019-04-10T06:04:11.931Z,26.40
2019-04-10T06:05:11.984Z,26.00
2019-04-10T06:06:12.553Z,25.40
2019-04-10T06:07:12.749Z,26.90
2019-04-10T06:08:11.958Z,26.30
2019-04-10T06:09:12.193Z,26.00
2019-04-10T06:10:11.863Z,25.10
2019-04-10T06:11:13.560Z,26.00
2019-04-10T06:12:11.926Z,25.60
2019-04-10T06:13:12.973Z,25.70
2019-04-10T06:14:11.817Z,26.20
2019-04-10T06:15:12.823Z,25.50
2019-04-10T06:16:11.920Z,26.20
2019-04-10T06:17:11.785Z,25.00
2019-04-10T06:18:12.767Z,25.30
2019-04-10T06:19:11.761Z,24.80
2019-04-10T06:20:11.750Z,26.00
2019-04-10T06:21:12.578Z,25.30
2019-04-10T06:22:12.766Z,25.70
2019-04-10T06:23:11.715Z,24.80
2019-04-10T06:24:11.997Z,24.60
2019-04-10T06:25:13.947Z,26.10
2019-04-10T06:26:12.623Z,25.10
2019-04-10T06:27:12.301Z,25.50
2019-04-10T06:28:12.837Z,25.80
2019-04-10T06:29:12.809Z,25.90
2019-04-10T06:30:12.120Z,25.60
2019-04-10T06:31:12.516Z,25.90
2019-04-10T06:32:11.628Z,25.50
2019-04-10T06:33:11.752Z,25.50
2019-04-10T06:34:14.336Z,26.00
2019-04-10T06:35:11.584Z,24.50
2019-04-10T06:36:11.566Z,25.70
2019-04-10T06:37:11.585Z,26.10
2019-04-10T06:38:12.705Z,25.30
2019-04-10T06:39:11.534Z,25.40
2019-04-10T06:40:18.610Z,24.40
2019-04-10T06:41:15.881Z,24.80
2019-04-10T06:42:12.107Z,25.10
2019-04-10T06:43:11.497Z,24.60
2019-04-10T06:44:11.881Z,25.20
2019-04-10T06:45:11.507Z,24.90
2019-04-10T06:46:12.475Z,24.90
2019-04-10T06:47:11.930Z,24.30
2019-04-10T06:48:11.455Z,24.20
2019-04-10T06:49:12.279Z,23.00
2019-04-10T06:50:11.407Z,24.10
2019-04-10T06:51:12.298Z,23.60
2019-04-10T06:52:11.382Z,24.50
2019-04-10T06:53:11.374Z,24.70
2019-04-10T06:54:12.673Z,24.00
2019-04-10T06:55:11.377Z,23.60
2019-04-10T06:56:11.383Z,23.00
2019-04-10T06:57:11.407Z,23.10
2019-04-10T06:58:11.673Z,23.20
2019-04-10T06:59:12.180Z,21.60
2019-04-10T07:00:13.683Z,22.60
2019-04-10T07:01:12.515Z,22.70
2019-04-10T07:02:20.564Z,23.20
2019-04-10T07:03:12.259Z,22.30
2019-04-10T07:04:11.515Z,22.90
2019-04-10T07:05:12.411Z,22.20
2019-04-10T07:06:16.931Z,21.90
2019-04-10T07:07:15.168Z,23.20
2019-04-10T07:08:16.547Z,23.00
2019-04-10T07:09:12.235Z,22.10
2019-04-10T07:10:22.530Z,22.40
2019-04-10T07:11:13.534Z,23.00
2019-04-10T07:12:12.107Z,22.30
2019-04-10T07:13:13.027Z,22.50
2019-04-10T07:14:14.023Z,22.00
2019-04-10T07:15:11.152Z,22.20
2019-04-10T07:16:11.655Z,23.30
2019-04-10T07:17:13.876Z,22.60
2019-04-10T07:18:14.277Z,22.10
2019-04-10T07:19:13.202Z,21.80
2019-04-10T07:20:11.084Z,21.50
2019-04-10T07:21:11.058Z,21.60
2019-04-10T07:22:13.922Z,21.30
2019-04-10T07:23:13.920Z,20.80
2019-04-10T07:24:14.702Z,21.00
2019-04-10T07:25:12.703Z,21.30
2019-04-10T07:26:12.265Z,21.00
2019-04-10T07:27:11.948Z,20.10
2019-04-10T07:28:12.209Z,20.40
2019-04-10T07:29:11.093Z,20.80
2019-04-10T07:30:11.884Z,20.70
2019-04-10T07:31:11.633Z,20.40
2019-04-10T07:32:12.310Z,19.50
2019-04-10T07:33:14.855Z,19.70
2019-04-10T07:34:11.933Z,20.20
2019-04-10T07:35:13.824Z,19.00
2019-04-10T07:36:13.650Z,19.30
2019-04-10T07:37:14.666Z,18.90
2019-04-10T07:38:11.897Z,20.00
2019-04-10T07:39:10.850Z,19.90
2019-04-10T07:40:10.840Z,19.40
2019-04-10T07:41:16.876Z,19.50
2019-04-10T07:42:11.814Z,19.20
2019-04-10T07:43:11.157Z,19.10
2019-04-10T07:44:10.794Z,18.10
2019-04-10T07:45:10.784Z,18.80
2019-04-10T07:46:10.802Z,18.50
2019-04-10T07:47:11.178Z,18.50
2019-04-10T07:48:10.794Z,19.00
2019-04-10T07:49:10.736Z,19.30
2019-04-10T07:50:10.725Z,18.50
2019-04-10T07:51:11.248Z,18.90
2019-04-10T07:52:10.719Z,17.60
2019-04-10T07:53:10.694Z,18.00
2019-04-10T07:54:10.680Z,17.30
2019-04-10T07:55:10.781Z,17.50
2019-04-10T07:56:14.930Z,17.10
2019-04-10T07:57:11.865Z,17.10
2019-04-10T07:58:11.032Z,17.50
2019-04-10T07:59:10.908Z,17.80
2019-04-10T08:00:11.089Z,16.40
2019-04-10T08:01:10.602Z,17.20
2019-04-10T08:02:10.588Z,16.30
2019-04-10T08:03:10.594Z,16.30
2019-04-10T08:04:10.566Z,15.80
2019-04-10T08:05:10.555Z,15.90
2019-04-10T08:06:11.092Z,16.10
2019-04-10T08:07:11.652Z,16.20
2019-04-10T08:08:12.491Z,15.80
2019-04-10T08:09:10.602Z,15.20
2019-04-10T08:10:10.498Z,15.40
2019-04-10T08:11:10.491Z,14.80
2019-04-10T08:12:11.346Z,14.60
2019-04-10T08:13:10.465Z,15.00
2019-04-10T08:14:10.707Z,14.80
2019-04-10T08:15:11.227Z,14.10
2019-04-10T08:16:10.635Z,14.80
2019-04-10T08:17:10.419Z,14.40
2019-04-10T08:18:10.412Z,13.20
2019-04-10T08:19:10.470Z,13.70
2019-04-10T08:20:10.384Z,13.40
2019-04-10T08:21:11.293Z,12.80
2019-04-10T08:22:10.360Z,13.00
2019-04-10T08:23:10.448Z,12.40
2019-04-10T08:24:11.180Z,13.30
2019-04-10T08:25:10.846Z,12.90
2019-04-10T08:26:10.316Z,13.00
2019-04-10T08:27:10.440Z,13.10
2019-04-10T08:28:11.239Z,12.30
2019-04-10T08:29:10.281Z,12.90
2019-04-10T08:30:11.053Z,12.30
2019-04-10T08:31:10.258Z,12.80
2019-04-10T08:32:10.247Z,12.90
2019-04-10T08:33:10.236Z,13.00
2019-04-10T08:34:10.993Z,12.40
2019-04-10T08:35:11.243Z,12.70
2019-04-10T08:36:10.864Z,12.90
2019-04-10T08:37:10.327Z,13.30
2019-04-10T08:38:10.178Z,13.00
2019-04-10T08:39:10.967Z,12.30
2019-04-10T08:40:11.426Z,13.60
2019-04-10T08:41:10.759Z,13.10
2019-04-10T08:42:10.652Z,12.10
2019-04-10T08:43:10.120Z,11.50
2019-04-10T08:44:10.751Z,11.30
2019-04-10T08:45:11.230Z,11.60
2019-04-10T08:46:10.878Z,11.60
2019-04-10T08:47:11.000Z,11.80
2019-04-10T08:48:10.115Z,11.70
2019-04-10T08:49:10.061Z,12.00
2019-04-10T08:50:10.040Z,11.70
2019-04-10T08:51:10.765Z,11.40
2019-04-10T08:52:10.392Z,12.10
2019-04-10T08:53:10.009Z,11.60
2019-04-10T08:54:10.081Z,11.40
2019-04-10T08:55:10.214Z,11.70
2019-04-10T08:56:10.755Z,11.10
2019-04-10T08:57:11.195Z,10.70
2019-04-10T08:58:10.416Z,10.60
2019-04-10T08:59:09.945Z,11.00
2019-04-10T09:00:10.219Z,10.50
2019-04-10T09:01:11.113Z,11.30
2019-04-10T09:02:09.918Z,10.40
2019-04-10T09:03:10.825Z,10.70
2019-04-10T09:04:09.887Z,10.30
2019-04-10T09:05:09.878Z,10.40
2019-04-10T09:06:09.860Z,10.70
2019-04-10T09:07:09.873Z,10.30
2019-04-10T09:08:10.793Z,9.90
2019-04-10T09:09:09.844Z,9.70
2019-04-10T09:10:10.269Z,9.70
2019-04-10T09:11:09.797Z,9.40
2019-04-10T09:12:09.789Z,10.10
2019-04-10T09:13:10.451Z,10.00
2019-04-10T09:14:10.710Z,10.20
2019-04-10T09:15:09.859Z,12.30
2019-04-10T09:16:10.036Z,12.00
2019-04-10T09:17:09.733Z,11.00
2019-04-10T09:18:11.220Z,10.20
2019-04-10T09:19:09.767Z,10.10
2019-04-10T09:20:10.774Z,10.40
2019-04-10T09:21:09.682Z,9.90
2019-04-10T09:22:10.042Z,9.70
2019-04-10T09:23:21.519Z,10.20
2019-04-10T09:24:10.669Z,9.30
2019-04-10T09:25:09.636Z,9.30
2019-04-10T09:26:09.624Z,9.20
2019-04-10T09:27:09.614Z,9.10
2019-04-10T09:28:10.557Z,9.10
2019-04-10T09:29:09.798Z,8.60
2019-04-10T09:30:10.804Z,8.90
2019-04-10T09:31:09.566Z,8.90
2019-04-10T09:32:11.111Z,8.30
2019-04-10T09:33:16.948Z,8.80
2019-04-10T09:34:11.682Z,8.70
2019-04-10T09:35:09.520Z,8.90
2019-04-10T09:36:09.509Z,8.70
2019-04-10T09:37:10.072Z,8.60
2019-04-10T09:38:10.496Z,8.20
2019-04-10T09:39:09.614Z,8.30
2019-04-10T09:40:09.481Z,8.60
2019-04-10T09:41:09.957Z,7.80
2019-04-10T09:42:09.443Z,7.70
2019-04-10T09:43:09.433Z,8.10
2019-04-10T09:44:10.304Z,7.70
2019-04-10T09:45:09.427Z,7.90
2019-04-10T09:46:10.098Z,7.90
2019-04-10T09:47:09.894Z,7.70
2019-04-10T09:48:09.373Z,7.50
2019-04-10T09:49:09.364Z,7.60
2019-04-10T09:50:09.733Z,7.30
2019-04-10T09:51:09.767Z,7.60
2019-04-10T09:52:10.291Z,7.90
2019-04-10T09:53:09.319Z,8.10
2019-04-10T09:54:09.911Z,8.00
2019-04-10T09:55:09.548Z,7.70
2019-04-10T09:56:09.561Z,7.30
2019-04-10T09:57:09.272Z,7.50
2019-04-10T09:58:09.262Z,7.40
2019-04-10T09:59:09.670Z,7.70
2019-04-10T10:00:10.461Z,7.60
2019-04-10T10:01:10.367Z,8.30
2019-04-10T10:02:09.322Z,8.00
2019-04-10T10:03:09.789Z,7.80
2019-04-10T10:04:09.197Z,7.30
2019-04-10T10:05:09.184Z,7.40
2019-04-10T10:06:09.186Z,7.90
2019-04-10T10:07:10.298Z,8.00
2019-04-10T10:08:09.196Z,7.90
2019-04-10T10:09:09.329Z,7.50
2019-04-10T10:10:09.124Z,7.30
2019-04-10T10:11:09.554Z,7.70
2019-04-10T10:12:09.578Z,7.70
2019-04-10T10:13:09.602Z,7.50
2019-04-10T10:14:10.286Z,7.30
2019-04-10T10:15:09.430Z,7.90
2019-04-10T10:16:09.055Z,7.60
2019-04-10T10:17:09.058Z,7.60
2019-04-10T10:18:09.032Z,7.70
2019-04-10T10:19:09.966Z,7.10
2019-04-10T10:20:09.011Z,6.80
2019-04-10T10:21:09.000Z,7.40
2019-04-10T10:22:09.368Z,7.30
2019-04-10T10:23:09.592Z,7.50
2019-04-10T10:24:08.978Z,7.40
2019-04-10T10:25:09.025Z,7.00
2019-04-10T10:26:09.914Z,7.10
2019-04-10T10:27:09.483Z,7.40
2019-04-10T10:28:09.160Z,7.10
2019-04-10T10:29:09.266Z,7.30
2019-04-10T10:30:09.368Z,7.40
2019-04-10T10:31:08.885Z,7.40
2019-04-10T10:32:08.873Z,7.30
2019-04-10T10:33:09.855Z,7.40
2019-04-10T10:34:08.852Z,7.30
2019-04-10T10:35:09.348Z,7.80
2019-04-10T10:36:08.832Z,7.20
2019-04-10T10:37:08.816Z,7.50
2019-04-10T10:38:08.821Z,7.80
2019-04-10T10:39:12.718Z,7.70
2019-04-10T10:40:09.991Z,8.30
2019-04-10T10:41:08.823Z,7.60
2019-04-10T10:42:09.593Z,7.30
2019-04-10T10:43:09.897Z,7.70
2019-04-10T10:44:09.002Z,7.60
2019-04-10T10:45:08.730Z,7.90
2019-04-10T10:46:09.264Z,7.80
2019-04-10T10:47:08.707Z,7.50
2019-04-10T10:48:09.132Z,7.70
2019-04-10T10:49:08.688Z,7.70
2019-04-10T10:50:08.810Z,7.30
2019-04-10T10:51:08.824Z,7.40
2019-04-10T10:52:09.031Z,7.50
2019-04-10T10:53:08.653Z,8.10
2019-04-10T10:54:08.628Z,8.20
2019-04-10T10:55:09.650Z,7.70
2019-04-10T10:56:09.640Z,7.30
2019-04-10T10:57:09.032Z,7.30
2019-04-10T10:58:08.603Z,7.50
2019-04-10T10:59:09.245Z,7.40
2019-04-10T11:00:10.319Z,7.90
2019-04-10T11:01:08.548Z,7.60
2019-04-10T11:02:08.624Z,7.90
2019-04-10T11:03:09.794Z,7.60
2019-04-10T11:04:08.860Z,7.50
2019-04-10T11:05:08.862Z,7.20
2019-04-10T11:06:08.789Z,8.00
2019-04-10T11:07:08.706Z,8.00
2019-04-10T11:08:08.475Z,7.70
2019-04-10T11:09:08.477Z,7.50
2019-04-10T11:10:08.687Z,7.80
2019-04-10T11:11:08.673Z,7.80
2019-04-10T11:12:09.471Z,7.50
2019-04-10T11:13:08.823Z,8.00
2019-04-10T11:14:08.435Z,7.60
2019-04-10T11:15:08.395Z,7.90
2019-04-10T11:16:09.225Z,7.80
2019-04-10T11:17:09.315Z,7.50
2019-04-10T11:18:08.481Z,7.90
2019-04-10T11:19:08.354Z,7.70
2019-04-10T11:20:08.359Z,7.60
2019-04-10T11:21:11.353Z,8.00
2019-04-10T11:22:09.389Z,7.70
2019-04-10T11:23:09.418Z,8.10
2019-04-10T11:24:09.217Z,7.60
2019-04-10T11:25:08.303Z,7.20
2019-04-10T11:26:08.584Z,7.30
2019-04-10T11:27:09.915Z,7.60
2019-04-10T11:28:08.543Z,7.40
2019-04-10T11:29:09.907Z,7.80
2019-04-10T11:30:08.508Z,7.60
2019-04-10T11:31:09.273Z,7.80
2019-04-10T11:32:09.187Z,8.30
2019-04-10T11:33:08.523Z,7.50
2019-04-10T11:34:09.983Z,7.80
2019-04-10T11:35:08.201Z,7.70
2019-04-10T11:36:08.163Z,7.80
2019-04-10T11:38:09.141Z,8.50
2019-04-10T11:39:16.759Z,8.20
2019-04-10T11:40:09.148Z,8.20
2019-04-10T11:41:08.110Z,8.60
2019-04-10T11:42:09.975Z,8.90
2019-04-10T11:43:09.925Z,8.30
2019-04-10T11:44:09.462Z,8.30
2019-04-10T11:45:09.808Z,8.10
2019-04-10T11:46:08.118Z,8.30
2019-04-10T11:47:09.514Z,8.30
2019-04-10T11:48:08.032Z,8.70
2019-04-10T11:49:10.265Z,8.10
2019-04-10T11:50:13.383Z,8.00
2019-04-10T11:51:11.923Z,8.40
2019-04-10T11:52:10.354Z,8.30
2019-04-10T11:53:10.283Z,8.50
2019-04-10T11:54:12.523Z,7.70
2019-04-10T11:55:13.759Z,7.90
2019-04-10T11:56:11.552Z,8.50
2019-04-10T11:57:07.935Z,8.40
2019-04-10T11:58:10.171Z,9.10
2019-04-10T11:59:11.570Z,8.80
2019-04-10T12:00:12.089Z,8.80
2019-04-10T12:01:08.884Z,8.70
2019-04-10T12:02:08.834Z,8.40
2019-04-10T12:03:10.029Z,8.30
2019-04-10T12:04:09.801Z,8.20
2019-04-10T12:05:12.029Z,7.80
2019-04-10T12:06:11.479Z,8.10
2019-04-10T12:07:09.772Z,8.60
2019-04-10T12:08:33.469Z,8.20
2019-04-10T12:09:45.371Z,7.70
2019-04-10T12:11:13.810Z,8.10
2019-04-10T12:12:09.092Z,8.30
2019-04-10T12:13:08.197Z,8.30
2019-04-10T12:14:07.743Z,8.50
2019-04-10T12:15:08.033Z,8.70
2019-04-10T12:16:07.713Z,8.50
2019-04-10T12:17:07.702Z,8.20
2019-04-10T12:18:08.636Z,8.60
2019-04-10T12:19:07.872Z,8.40
2019-04-10T12:20:07.672Z,8.10
2019-04-10T12:21:07.655Z,8.60
2019-04-10T12:22:07.645Z,8.50
2019-04-10T12:23:08.462Z,8.70
2019-04-10T12:24:07.641Z,7.90
2019-04-10T12:25:07.610Z,8.10
2019-04-10T12:26:07.611Z,8.70
2019-04-10T12:27:07.589Z,7.90
2019-04-10T12:28:07.580Z,8.00
2019-04-10T12:29:08.621Z,9.00
2019-04-10T12:30:07.555Z,8.90
2019-04-10T12:31:07.936Z,8.10
2019-04-10T12:32:08.230Z,8.10
2019-04-10T12:33:07.632Z,8.20
2019-04-10T12:34:08.752Z,8.00
2019-04-10T12:35:07.506Z,8.30
2019-04-10T12:36:07.488Z,8.00
2019-04-10T12:37:07.475Z,8.60
2019-04-10T12:38:10.452Z,8.20
2019-04-10T12:39:07.905Z,8.40
2019-04-10T12:40:07.721Z,8.30
2019-04-10T12:41:07.430Z,8.50
2019-04-10T12:42:07.929Z,8.20
2019-04-10T12:43:08.460Z,8.30
2019-04-10T12:44:07.525Z,8.00
2019-04-10T12:45:08.262Z,7.60
2019-04-10T12:46:07.376Z,7.80
2019-04-10T12:47:07.984Z,7.90
2019-04-10T12:48:07.351Z,7.90
2019-04-10T12:49:07.504Z,7.70
2019-04-10T12:50:08.101Z,7.60
2019-04-10T12:51:07.721Z,7.90
2019-04-10T12:52:08.021Z,8.30
2019-04-10T12:53:07.443Z,7.50
2019-04-10T12:54:07.917Z,7.70
2019-04-10T12:55:08.127Z,7.60
2019-04-10T12:56:08.185Z,7.70
2019-04-10T12:57:07.942Z,7.70
2019-04-10T12:58:12.945Z,8.00
2019-04-10T12:59:08.910Z,7.30
2019-04-10T13:00:07.212Z,8.00
2019-04-10T13:01:07.218Z,7.90